Brownsboro, Texas
Current Conditions -  °F | °C
As of 6:53 PM on Tuesday 21 Oct 2014 (Local Time) from KTYR Reporting Station
Clear Clear  
Wind Chill: 75°   Ceiling: Unl
Heat Index: 75°   Visibility: 10mi
Dew Point: 61°   Wind: 5mph
Humidity: 62%   Direction: 70°ENE
Pressure: 30.03"   Gusts: NA
Location:  32.3°N, 95.61°W
Report Text: KTYR 212353Z 07004KT 10SM CLR 24/16 A3003 RMK AO2 SLP165 T02390161 10278 20239 53001
Loading
Personal Weather Stations






























Interactive Weather Map New forecast layout! Learn more

10-Day Weather Forecast

Advertisements
Track Severe Weather on mobile